sensor_id;sensor_type;location;lat;lon;timestamp;temperature;humidity
36586;DHT22;22591;48.314;11.562;2022-11-15T00:01:39;3.60;99.90
36586;DHT22;22591;48.314;11.562;2022-11-15T00:04:06;3.70;99.90
36586;DHT22;22591;48.314;11.562;2022-11-15T00:06:32;3.70;99.90
36586;DHT22;22591;48.314;11.562;2022-11-15T00:08:58;3.70;99.90
36586;DHT22;22591;48.314;11.562;2022-11-15T00:11:24;3.70;99.90
36586;DHT22;22591;48.314;11.562;2022-11-15T00:13:50;3.60;99.90
36586;DHT22;22591;48.314;11.562;2022-11-15T00:16:15;3.60;99.90
36586;DHT22;22591;48.314;11.562;2022-11-15T00:18:41;3.50;99.90
36586;DHT22;22591;48.314;11.562;2022-11-15T00:21:09;3.50;99.90
36586;DHT22;22591;48.314;11.562;2022-11-15T00:23:36;3.50;99.90
36586;DHT22;22591;48.314;11.562;2022-11-15T00:26:01;3.50;99.90
36586;DHT22;22591;48.314;11.562;2022-11-15T00:28:27;3.60;99.90
36586;DHT22;22591;48.314;11.562;2022-11-15T00:30:53;3.50;99.90
36586;DHT22;22591;48.314;11.562;2022-11-15T00:33:18;3.40;99.90
36586;DHT22;22591;48.314;11.562;2022-11-15T00:35:44;3.40;99.90
36586;DHT22;22591;48.314;11.562;2022-11-15T00:38:09;3.30;99.90
36586;DHT22;22591;48.314;11.562;2022-11-15T00:40:35;3.40;99.90
36586;DHT22;22591;48.314;11.562;2022-11-15T00:43:00;3.30;99.90
36586;DHT22;22591;48.314;11.562;2022-11-15T00:45:26;3.20;99.90
36586;DHT22;22591;48.314;11.562;2022-11-15T00:47:52;3.10;99.90
36586;DHT22;22591;48.314;11.562;2022-11-15T00:50:18;3.10;99.90
36586;DHT22;22591;48.314;11.562;2022-11-15T00:52:44;3.00;99.90
36586;DHT22;22591;48.314;11.562;2022-11-15T00:55:14;3.00;99.90
36586;DHT22;22591;48.314;11.562;2022-11-15T00:57:40;3.00;99.90
36586;DHT22;22591;48.314;11.562;2022-11-15T01:00:06;3.00;99.90
36586;DHT22;22591;48.314;11.562;2022-11-15T01:02:32;3.00;99.90
36586;DHT22;22591;48.314;11.562;2022-11-15T01:04:58;3.10;99.90
36586;DHT22;22591;48.314;11.562;2022-11-15T01:07:23;3.10;99.90
36586;DHT22;22591;48.314;11.562;2022-11-15T01:09:49;3.10;99.90
36586;DHT22;22591;48.314;11.562;2022-11-15T01:12:14;3.10;99.90
36586;DHT22;22591;48.314;11.562;2022-11-15T01:14:40;3.20;99.90
36586;DHT22;22591;48.314;11.562;2022-11-15T01:17:05;3.30;99.90
36586;DHT22;22591;48.314;11.562;2022-11-15T01:19:31;3.30;99.90
36586;DHT22;22591;48.314;11.562;2022-11-15T01:21:56;3.20;99.90
36586;DHT22;22591;48.314;11.562;2022-11-15T01:24:22;3.20;99.90
36586;DHT22;22591;48.314;11.562;2022-11-15T01:26:47;3.10;99.90
36586;DHT22;22591;48.314;11.562;2022-11-15T01:29:13;3.10;99.90
36586;DHT22;22591;48.314;11.562;2022-11-15T01:31:38;3.10;99.90
36586;DHT22;22591;48.314;11.562;2022-11-15T01:34:04;3.00;99.90
36586;DHT22;22591;48.314;11.562;2022-11-15T01:36:30;3.00;99.90
36586;DHT22;22591;48.314;11.562;2022-11-15T01:38:58;3.10;99.90
36586;DHT22;22591;48.314;11.562;2022-11-15T01:41:27;3.10;99.90
36586;DHT22;22591;48.314;11.562;2022-11-15T01:43:55;3.00;99.90
36586;DHT22;22591;48.314;11.562;2022-11-15T01:48:47;3.00;99.90
36586;DHT22;22591;48.314;11.562;2022-11-15T01:51:14;3.00;99.90
36586;DHT22;22591;48.314;11.562;2022-11-15T01:53:43;3.00;99.90
36586;DHT22;22591;48.314;11.562;2022-11-15T01:56:12;3.00;99.90
36586;DHT22;22591;48.314;11.562;2022-11-15T01:58:39;3.00;99.90
36586;DHT22;22591;48.314;11.562;2022-11-15T02:01:06;3.00;99.90
36586;DHT22;22591;48.314;11.562;2022-11-15T02:03:43;2.90;99.90
36586;DHT22;22591;48.314;11.562;2022-11-15T02:06:10;2.80;99.90
36586;DHT22;22591;48.314;11.562;2022-11-15T02:08:35;2.70;99.90
36586;DHT22;22591;48.314;11.562;2022-11-15T02:11:01;2.60;99.90
36586;DHT22;22591;48.314;11.562;2022-11-15T02:13:26;2.60;99.90
36586;DHT22;22591;48.314;11.562;2022-11-15T02:16:16;2.60;99.90
36586;DHT22;22591;48.314;11.562;2022-11-15T02:21:37;2.50;99.90
36586;DHT22;22591;48.314;11.562;2022-11-15T02:24:48;2.40;99.90
36586;DHT22;22591;48.314;11.562;2022-11-15T02:30:34;2.40;99.90
36586;DHT22;22591;48.314;11.562;2022-11-15T02:35:57;2.40;99.90
36586;DHT22;22591;48.314;11.562;2022-11-15T02:38:34;2.60;99.90
36586;DHT22;22591;48.314;11.562;2022-11-15T02:41:09;2.70;99.90
36586;DHT22;22591;48.314;11.562;2022-11-15T02:46:39;2.90;99.90
36586;DHT22;22591;48.314;11.562;2022-11-15T02:49:37;2.90;99.90
36586;DHT22;22591;48.314;11.562;2022-11-15T02:52:04;2.80;99.90
36586;DHT22;22591;48.314;11.562;2022-11-15T02:54:32;2.70;99.90
36586;DHT22;22591;48.314;11.562;2022-11-15T02:57:02;2.80;99.90
36586;DHT22;22591;48.314;11.562;2022-11-15T02:59:52;2.90;99.90
36586;DHT22;22591;48.314;11.562;2022-11-15T03:05:28;3.10;99.90
36586;DHT22;22591;48.314;11.562;2022-11-15T03:13:43;3.10;99.90
36586;DHT22;22591;48.314;11.562;2022-11-15T03:18:51;3.10;99.90
36586;DHT22;22591;48.314;11.562;2022-11-15T03:21:19;3.10;99.90
36586;DHT22;22591;48.314;11.562;2022-11-15T03:23:47;3.10;99.90
36586;DHT22;22591;48.314;11.562;2022-11-15T03:26:16;2.90;99.90
36586;DHT22;22591;48.314;11.562;2022-11-15T03:28:50;2.80;99.90
36586;DHT22;22591;48.314;11.562;2022-11-15T03:31:19;2.80;99.90
36586;DHT22;22591;48.314;11.562;2022-11-15T03:34:07;2.80;99.90
36586;DHT22;22591;48.314;11.562;2022-11-15T03:36:35;2.70;99.90
36586;DHT22;22591;48.314;11.562;2022-11-15T03:39:05;2.90;99.90
36586;DHT22;22591;48.314;11.562;2022-11-15T03:41:39;2.90;99.90
36586;DHT22;22591;48.314;11.562;2022-11-15T03:47:09;2.90;99.90
36586;DHT22;22591;48.314;11.562;2022-11-15T03:49:37;2.90;99.90
36586;DHT22;22591;48.314;11.562;2022-11-15T03:52:04;2.70;99.90
36586;DHT22;22591;48.314;11.562;2022-11-15T03:54:30;2.60;99.90
36586;DHT22;22591;48.314;11.562;2022-11-15T03:56:56;2.60;99.90
36586;DHT22;22591;48.314;11.562;2022-11-15T03:59:22;2.50;99.90
36586;DHT22;22591;48.314;11.562;2022-11-15T04:01:47;2.50;99.90
36586;DHT22;22591;48.314;11.562;2022-11-15T04:04:13;2.40;99.90
36586;DHT22;22591;48.314;11.562;2022-11-15T04:06:38;2.40;99.90
36586;DHT22;22591;48.314;11.562;2022-11-15T04:09:04;2.30;99.90
36586;DHT22;22591;48.314;11.562;2022-11-15T04:11:30;2.30;99.90
36586;DHT22;22591;48.314;11.562;2022-11-15T04:13:55;2.50;99.90
36586;DHT22;22591;48.314;11.562;2022-11-15T04:16:21;2.50;99.90
36586;DHT22;22591;48.314;11.562;2022-11-15T04:18:46;2.60;99.90
36586;DHT22;22591;48.314;11.562;2022-11-15T04:21:32;2.60;99.90
36586;DHT22;22591;48.314;11.562;2022-11-15T04:24:16;2.50;99.90
36586;DHT22;22591;48.314;11.562;2022-11-15T04:26:41;2.50;99.90
36586;DHT22;22591;48.314;11.562;2022-11-15T04:29:07;2.40;99.90
36586;DHT22;22591;48.314;11.562;2022-11-15T04:31:51;2.40;99.90
36586;DHT22;22591;48.314;11.562;2022-11-15T04:34:17;2.40;99.90
36586;DHT22;22591;48.314;11.562;2022-11-15T04:36:42;2.40;99.90
36586;DHT22;22591;48.314;11.562;2022-11-15T04:39:26;2.30;99.90
36586;DHT22;22591;48.314;11.562;2022-11-15T04:41:52;2.30;99.90
36586;DHT22;22591;48.314;11.562;2022-11-15T04:44:17;2.20;99.90
36586;DHT22;22591;48.314;11.562;2022-11-15T04:46:43;2.20;99.90
36586;DHT22;22591;48.314;11.562;2022-11-15T04:49:08;2.20;99.90
36586;DHT22;22591;48.314;11.562;2022-11-15T04:51:34;2.20;99.90
36586;DHT22;22591;48.314;11.562;2022-11-15T04:53:59;2.20;99.90
36586;DHT22;22591;48.314;11.562;2022-11-15T04:56:25;2.20;99.90
36586;DHT22;22591;48.314;11.562;2022-11-15T04:58:50;2.20;99.90
36586;DHT22;22591;48.314;11.562;2022-11-15T05:01:16;2.20;99.90
36586;DHT22;22591;48.314;11.562;2022-11-15T05:03:42;2.10;99.90
36586;DHT22;22591;48.314;11.562;2022-11-15T05:06:26;2.10;99.90
36586;DHT22;22591;48.314;11.562;2022-11-15T05:08:52;2.10;99.90
36586;DHT22;22591;48.314;11.562;2022-11-15T05:11:18;2.00;99.90
36586;DHT22;22591;48.314;11.562;2022-11-15T05:13:43;2.00;99.90
36586;DHT22;22591;48.314;11.562;2022-11-15T05:16:09;2.10;99.90
36586;DHT22;22591;48.314;11.562;2022-11-15T05:18:35;2.00;99.90
36586;DHT22;22591;48.314;11.562;2022-11-15T05:21:08;1.90;99.90
36586;DHT22;22591;48.314;11.562;2022-11-15T05:23:34;1.90;99.90
36586;DHT22;22591;48.314;11.562;2022-11-15T05:26:01;1.80;99.90
36586;DHT22;22591;48.314;11.562;2022-11-15T05:28:26;1.80;99.90
36586;DHT22;22591;48.314;11.562;2022-11-15T05:30:52;1.80;99.90
36586;DHT22;22591;48.314;11.562;2022-11-15T05:33:18;1.90;99.90
36586;DHT22;22591;48.314;11.562;2022-11-15T05:35:50;2.00;99.90
36586;DHT22;22591;48.314;11.562;2022-11-15T05:38:19;2.10;99.90
36586;DHT22;22591;48.314;11.562;2022-11-15T05:40:45;2.00;99.90
36586;DHT22;22591;48.314;11.562;2022-11-15T05:43:11;2.10;99.90
36586;DHT22;22591;48.314;11.562;2022-11-15T05:45:36;2.10;99.90
36586;DHT22;22591;48.314;11.562;2022-11-15T05:48:06;2.00;99.90
36586;DHT22;22591;48.314;11.562;2022-11-15T05:50:32;2.00;99.90
36586;DHT22;22591;48.314;11.562;2022-11-15T05:52:58;1.80;99.90
36586;DHT22;22591;48.314;11.562;2022-11-15T05:55:24;1.80;99.90
36586;DHT22;22591;48.314;11.562;2022-11-15T05:57:50;1.70;99.90
36586;DHT22;22591;48.314;11.562;2022-11-15T06:00:15;1.70;99.90
36586;DHT22;22591;48.314;11.562;2022-11-15T06:02:41;1.60;99.90
36586;DHT22;22591;48.314;11.562;2022-11-15T06:05:07;1.60;99.90
36586;DHT22;22591;48.314;11.562;2022-11-15T06:07:33;1.60;99.90
36586;DHT22;22591;48.314;11.562;2022-11-15T06:09:58;1.60;99.90
36586;DHT22;22591;48.314;11.562;2022-11-15T06:12:24;1.60;99.90
36586;DHT22;22591;48.314;11.562;2022-11-15T06:14:49;1.60;99.90
36586;DHT22;22591;48.314;11.562;2022-11-15T06:17:15;1.70;99.90
36586;DHT22;22591;48.314;11.562;2022-11-15T06:19:40;1.70;99.90
36586;DHT22;22591;48.314;11.562;2022-11-15T06:22:06;1.70;99.90
36586;DHT22;22591;48.314;11.562;2022-11-15T06:24:31;1.70;99.90
36586;DHT22;22591;48.314;11.562;2022-11-15T06:26:57;1.70;99.90
36586;DHT22;22591;48.314;11.562;2022-11-15T06:29:23;1.70;99.90
36586;DHT22;22591;48.314;11.562;2022-11-15T06:31:48;1.80;99.90
36586;DHT22;22591;48.314;11.562;2022-11-15T06:34:14;1.90;99.90
36586;DHT22;22591;48.314;11.562;2022-11-15T06:36:39;2.00;99.90
36586;DHT22;22591;48.314;11.562;2022-11-15T06:39:05;2.10;99.90
36586;DHT22;22591;48.314;11.562;2022-11-15T06:41:34;2.10;99.90
36586;DHT22;22591;48.314;11.562;2022-11-15T06:44:00;2.10;99.90
36586;DHT22;22591;48.314;11.562;2022-11-15T06:46:26;2.10;99.90
36586;DHT22;22591;48.314;11.562;2022-11-15T06:48:52;2.20;99.90
36586;DHT22;22591;48.314;11.562;2022-11-15T06:51:18;2.20;99.90
36586;DHT22;22591;48.314;11.562;2022-11-15T06:53:43;2.30;99.90
36586;DHT22;22591;48.314;11.562;2022-11-15T06:56:09;2.40;99.90
36586;DHT22;22591;48.314;11.562;2022-11-15T06:58:35;2.50;99.90
36586;DHT22;22591;48.314;11.562;2022-11-15T07:01:05;2.50;99.90
36586;DHT22;22591;48.314;11.562;2022-11-15T07:03:31;2.60;99.90
36586;DHT22;22591;48.314;11.562;2022-11-15T07:05:57;2.60;99.90
36586;DHT22;22591;48.314;11.562;2022-11-15T07:08:24;2.70;99.90
36586;DHT22;22591;48.314;11.562;2022-11-15T07:10:51;2.70;99.90
36586;DHT22;22591;48.314;11.562;2022-11-15T07:13:17;2.70;99.90
36586;DHT22;22591;48.314;11.562;2022-11-15T07:15:43;2.70;99.90
36586;DHT22;22591;48.314;11.562;2022-11-15T07:18:09;2.80;99.90
36586;DHT22;22591;48.314;11.562;2022-11-15T07:20:34;2.90;99.90
36586;DHT22;22591;48.314;11.562;2022-11-15T07:23:04;3.00;99.90
36586;DHT22;22591;48.314;11.562;2022-11-15T07:25:30;3.00;99.90
36586;DHT22;22591;48.314;11.562;2022-11-15T07:27:57;3.10;99.90
36586;DHT22;22591;48.314;11.562;2022-11-15T07:30:23;3.10;99.90
36586;DHT22;22591;48.314;11.562;2022-11-15T07:32:54;3.20;99.90
36586;DHT22;22591;48.314;11.562;2022-11-15T07:35:19;3.30;99.90
36586;DHT22;22591;48.314;11.562;2022-11-15T07:37:53;3.30;99.90
36586;DHT22;22591;48.314;11.562;2022-11-15T07:40:19;3.40;99.90
36586;DHT22;22591;48.314;11.562;2022-11-15T07:42:44;3.50;99.90
36586;DHT22;22591;48.314;11.562;2022-11-15T07:45:23;3.60;99.90
36586;DHT22;22591;48.314;11.562;2022-11-15T07:47:51;3.70;99.90
36586;DHT22;22591;48.314;11.562;2022-11-15T07:50:17;3.70;99.90
36586;DHT22;22591;48.314;11.562;2022-11-15T07:52:43;3.80;99.90
36586;DHT22;22591;48.314;11.562;2022-11-15T07:55:09;3.90;99.90
36586;DHT22;22591;48.314;11.562;2022-11-15T07:57:35;3.90;99.90
36586;DHT22;22591;48.314;11.562;2022-11-15T08:00:01;4.10;99.90
36586;DHT22;22591;48.314;11.562;2022-11-15T08:02:27;4.20;99.90
36586;DHT22;22591;48.314;11.562;2022-11-15T08:04:53;4.30;99.90
36586;DHT22;22591;48.314;11.562;2022-11-15T08:07:18;4.40;99.90
36586;DHT22;22591;48.314;11.562;2022-11-15T08:09:44;4.50;99.90
36586;DHT22;22591;48.314;11.562;2022-11-15T08:12:10;4.60;99.90
36586;DHT22;22591;48.314;11.562;2022-11-15T08:14:35;4.60;99.90
36586;DHT22;22591;48.314;11.562;2022-11-15T08:17:01;4.70;99.90
36586;DHT22;22591;48.314;11.562;2022-11-15T08:19:26;4.80;99.90
36586;DHT22;22591;48.314;11.562;2022-11-15T08:21:52;5.00;99.90
36586;DHT22;22591;48.314;11.562;2022-11-15T08:24:18;5.10;99.90
36586;DHT22;22591;48.314;11.562;2022-11-15T08:26:43;5.30;99.90
36586;DHT22;22591;48.314;11.562;2022-11-15T08:29:09;5.40;99.90
36586;DHT22;22591;48.314;11.562;2022-11-15T08:31:35;5.50;99.90
36586;DHT22;22591;48.314;11.562;2022-11-15T08:34:05;5.50;99.90
36586;DHT22;22591;48.314;11.562;2022-11-15T08:36:31;5.60;99.90
36586;DHT22;22591;48.314;11.562;2022-11-15T08:38:56;5.70;99.90
36586;DHT22;22591;48.314;11.562;2022-11-15T08:41:31;5.80;99.90
36586;DHT22;22591;48.314;11.562;2022-11-15T08:43:57;5.90;99.90
36586;DHT22;22591;48.314;11.562;2022-11-15T08:46:23;6.00;99.90
36586;DHT22;22591;48.314;11.562;2022-11-15T08:48:49;6.00;99.90
36586;DHT22;22591;48.314;11.562;2022-11-15T08:51:14;6.20;99.90
36586;DHT22;22591;48.314;11.562;2022-11-15T08:53:40;6.20;99.90
36586;DHT22;22591;48.314;11.562;2022-11-15T08:56:11;6.20;99.90
36586;DHT22;22591;48.314;11.562;2022-11-15T08:58:37;6.30;99.90
36586;DHT22;22591;48.314;11.562;2022-11-15T09:01:03;6.30;99.90
36586;DHT22;22591;48.314;11.562;2022-11-15T09:03:29;6.40;99.90
36586;DHT22;22591;48.314;11.562;2022-11-15T09:05:58;6.50;99.90
36586;DHT22;22591;48.314;11.562;2022-11-15T09:08:28;6.60;99.90
36586;DHT22;22591;48.314;11.562;2022-11-15T09:10:54;6.60;99.90
36586;DHT22;22591;48.314;11.562;2022-11-15T09:13:20;6.70;99.90
36586;DHT22;22591;48.314;11.562;2022-11-15T09:15:45;6.80;99.90
36586;DHT22;22591;48.314;11.562;2022-11-15T09:18:11;6.90;99.90
36586;DHT22;22591;48.314;11.562;2022-11-15T09:20:36;6.90;99.90
36586;DHT22;22591;48.314;11.562;2022-11-15T09:23:03;7.00;99.90
36586;DHT22;22591;48.314;11.562;2022-11-15T09:25:30;7.10;99.90
36586;DHT22;22591;48.314;11.562;2022-11-15T09:27:55;7.10;99.90
36586;DHT22;22591;48.314;11.562;2022-11-15T09:30:22;7.20;99.90
36586;DHT22;22591;48.314;11.562;2022-11-15T09:32:48;7.30;99.90
36586;DHT22;22591;48.314;11.562;2022-11-15T09:35:14;7.40;99.90
36586;DHT22;22591;48.314;11.562;2022-11-15T09:37:39;7.50;99.90
36586;DHT22;22591;48.314;11.562;2022-11-15T09:40:06;7.60;99.90
36586;DHT22;22591;48.314;11.562;2022-11-15T09:43:05;7.60;99.90
36586;DHT22;22591;48.314;11.562;2022-11-15T09:50:50;7.90;99.90
36586;DHT22;22591;48.314;11.562;2022-11-15T09:53:34;8.00;99.90
36586;DHT22;22591;48.314;11.562;2022-11-15T09:56:12;8.00;99.90
36586;DHT22;22591;48.314;11.562;2022-11-15T10:01:41;8.30;99.90
36586;DHT22;22591;48.314;11.562;2022-11-15T10:04:09;8.40;99.90
36586;DHT22;22591;48.314;11.562;2022-11-15T10:06:38;8.50;99.90
36586;DHT22;22591;48.314;11.562;2022-11-15T10:09:15;8.60;99.90
36586;DHT22;22591;48.314;11.562;2022-11-15T10:11:42;8.80;99.90
36586;DHT22;22591;48.314;11.562;2022-11-15T10:14:18;8.90;99.90
36586;DHT22;22591;48.314;11.562;2022-11-15T10:17:01;9.00;99.90
36586;DHT22;22591;48.314;11.562;2022-11-15T10:19:56;9.10;99.90
36586;DHT22;22591;48.314;11.562;2022-11-15T10:22:28;9.10;99.90
36586;DHT22;22591;48.314;11.562;2022-11-15T10:27:35;9.20;99.90
36586;DHT22;22591;48.314;11.562;2022-11-15T10:30:00;9.30;99.90
36586;DHT22;22591;48.314;11.562;2022-11-15T10:32:26;9.30;99.90
36586;DHT22;22591;48.314;11.562;2022-11-15T10:34:52;9.40;99.90
36586;DHT22;22591;48.314;11.562;2022-11-15T10:37:36;9.50;99.90
36586;DHT22;22591;48.314;11.562;2022-11-15T10:40:13;9.50;99.90
36586;DHT22;22591;48.314;11.562;2022-11-15T10:42:39;9.60;99.90
36586;DHT22;22591;48.314;11.562;2022-11-15T10:45:27;9.60;99.90
36586;DHT22;22591;48.314;11.562;2022-11-15T10:47:53;9.70;99.90
36586;DHT22;22591;48.314;11.562;2022-11-15T10:50:31;9.80;99.90
36586;DHT22;22591;48.314;11.562;2022-11-15T10:52:57;9.90;99.90
36586;DHT22;22591;48.314;11.562;2022-11-15T10:55:30;9.80;99.90
36586;DHT22;22591;48.314;11.562;2022-11-15T10:58:31;9.90;99.90
36586;DHT22;22591;48.314;11.562;2022-11-15T11:01:09;10.00;99.90
36586;DHT22;22591;48.314;11.562;2022-11-15T11:03:36;10.10;99.90
36586;DHT22;22591;48.314;11.562;2022-11-15T11:06:12;10.10;99.90
36586;DHT22;22591;48.314;11.562;2022-11-15T11:08:39;10.10;99.90
36586;DHT22;22591;48.314;11.562;2022-11-15T11:11:05;10.10;99.90
36586;DHT22;22591;48.314;11.562;2022-11-15T11:13:35;10.20;99.90
36586;DHT22;22591;48.314;11.562;2022-11-15T11:29:38;10.30;99.90
36586;DHT22;22591;48.314;11.562;2022-11-15T11:35:06;10.50;99.90
36586;DHT22;22591;48.314;11.562;2022-11-15T11:37:47;10.60;99.90
36586;DHT22;22591;48.314;11.562;2022-11-15T11:40:39;10.60;99.90
36586;DHT22;22591;48.314;11.562;2022-11-15T11:43:30;10.70;99.90
36586;DHT22;22591;48.314;11.562;2022-11-15T11:46:32;10.70;99.90
36586;DHT22;22591;48.314;11.562;2022-11-15T11:49:03;10.70;99.90
36586;DHT22;22591;48.314;11.562;2022-11-15T11:54:45;10.90;99.90
36586;DHT22;22591;48.314;11.562;2022-11-15T11:57:22;10.90;99.90
36586;DHT22;22591;48.314;11.562;2022-11-15T11:59:55;10.90;99.90
36586;DHT22;22591;48.314;11.562;2022-11-15T12:02:38;10.80;99.90
36586;DHT22;22591;48.314;11.562;2022-11-15T12:05:29;10.90;99.90
36586;DHT22;22591;48.314;11.562;2022-11-15T12:08:03;10.90;99.90
36586;DHT22;22591;48.314;11.562;2022-11-15T12:10:30;11.00;99.90
36586;DHT22;22591;48.314;11.562;2022-11-15T12:13:04;11.00;99.90
36586;DHT22;22591;48.314;11.562;2022-11-15T12:15:36;11.10;99.90
36586;DHT22;22591;48.314;11.562;2022-11-15T12:18:04;11.10;99.90
36586;DHT22;22591;48.314;11.562;2022-11-15T12:20:34;11.20;99.90
36586;DHT22;22591;48.314;11.562;2022-11-15T12:23:21;11.30;99.90
36586;DHT22;22591;48.314;11.562;2022-11-15T12:25:54;11.30;99.90
36586;DHT22;22591;48.314;11.562;2022-11-15T12:28:38;11.30;99.90
36586;DHT22;22591;48.314;11.562;2022-11-15T12:31:13;11.40;99.90
36586;DHT22;22591;48.314;11.562;2022-11-15T12:33:44;11.40;99.90
36586;DHT22;22591;48.314;11.562;2022-11-15T12:36:12;11.40;99.90
36586;DHT22;22591;48.314;11.562;2022-11-15T12:41:35;11.40;99.90
36586;DHT22;22591;48.314;11.562;2022-11-15T12:44:02;11.40;99.90
36586;DHT22;22591;48.314;11.562;2022-11-15T12:49:01;11.50;99.90
36586;DHT22;22591;48.314;11.562;2022-11-15T13:02:23;11.80;99.90
36586;DHT22;22591;48.314;11.562;2022-11-15T13:04:51;11.80;99.90
36586;DHT22;22591;48.314;11.562;2022-11-15T13:10:07;11.90;99.90
36586;DHT22;22591;48.314;11.562;2022-11-15T13:15:33;12.10;99.90
36586;DHT22;22591;48.314;11.562;2022-11-15T13:18:33;12.10;99.90
36586;DHT22;22591;48.314;11.562;2022-11-15T13:21:00;12.10;99.90
36586;DHT22;22591;48.314;11.562;2022-11-15T13:23:25;12.10;99.90
36586;DHT22;22591;48.314;11.562;2022-11-15T13:28:33;12.10;99.90
36586;DHT22;22591;48.314;11.562;2022-11-15T13:31:13;12.10;99.90
36586;DHT22;22591;48.314;11.562;2022-11-15T13:33:39;12.10;99.90
36586;DHT22;22591;48.314;11.562;2022-11-15T13:36:27;12.20;99.90
36586;DHT22;22591;48.314;11.562;2022-11-15T13:38:56;12.20;99.90
36586;DHT22;22591;48.314;11.562;2022-11-15T13:41:25;12.20;99.90
36586;DHT22;22591;48.314;11.562;2022-11-15T13:43:52;12.20;99.90
36586;DHT22;22591;48.314;11.562;2022-11-15T13:46:23;12.20;99.90
36586;DHT22;22591;48.314;11.562;2022-11-15T13:48:58;12.10;99.90
36586;DHT22;22591;48.314;11.562;2022-11-15T14:01:52;12.00;99.90
36586;DHT22;22591;48.314;11.562;2022-11-15T14:04:23;11.90;99.90
36586;DHT22;22591;48.314;11.562;2022-11-15T14:06:54;11.90;99.90
36586;DHT22;22591;48.314;11.562;2022-11-15T14:09:34;11.80;99.90
36586;DHT22;22591;48.314;11.562;2022-11-15T14:12:01;11.90;99.90
36586;DHT22;22591;48.314;11.562;2022-11-15T14:14:29;11.90;99.90
36586;DHT22;22591;48.314;11.562;2022-11-15T14:16:59;11.90;99.90
36586;DHT22;22591;48.314;11.562;2022-11-15T14:24:35;11.90;99.90
36586;DHT22;22591;48.314;11.562;2022-11-15T14:27:22;11.90;99.90
36586;DHT22;22591;48.314;11.562;2022-11-15T14:29:48;11.90;99.90
36586;DHT22;22591;48.314;11.562;2022-11-15T14:32:19;11.80;99.90
36586;DHT22;22591;48.314;11.562;2022-11-15T14:34:45;11.80;99.90
36586;DHT22;22591;48.314;11.562;2022-11-15T14:37:30;11.70;99.90
36586;DHT22;22591;48.314;11.562;2022-11-15T14:40:01;11.70;99.90
36586;DHT22;22591;48.314;11.562;2022-11-15T14:42:27;11.50;99.90
36586;DHT22;22591;48.314;11.562;2022-11-15T14:44:53;11.50;99.90
36586;DHT22;22591;48.314;11.562;2022-11-15T14:47:18;11.40;99.90
36586;DHT22;22591;48.314;11.562;2022-11-15T14:49:44;11.30;99.90
36586;DHT22;22591;48.314;11.562;2022-11-15T14:52:30;11.30;99.90
36586;DHT22;22591;48.314;11.562;2022-11-15T14:55:01;11.10;99.90
36586;DHT22;22591;48.314;11.562;2022-11-15T14:57:27;11.00;99.90
36586;DHT22;22591;48.314;11.562;2022-11-15T14:59:53;10.90;99.90
36586;DHT22;22591;48.314;11.562;2022-11-15T15:02:21;10.80;99.90
36586;DHT22;22591;48.314;11.562;2022-11-15T15:04:47;10.60;99.90
36586;DHT22;22591;48.314;11.562;2022-11-15T15:07:13;10.50;99.90
36586;DHT22;22591;48.314;11.562;2022-11-15T15:09:39;10.50;99.90
36586;DHT22;22591;48.314;11.562;2022-11-15T15:12:14;10.30;99.90
36586;DHT22;22591;48.314;11.562;2022-11-15T15:14:41;10.20;99.90
36586;DHT22;22591;48.314;11.562;2022-11-15T15:17:07;10.10;99.90
36586;DHT22;22591;48.314;11.562;2022-11-15T15:19:32;10.00;99.90
36586;DHT22;22591;48.314;11.562;2022-11-15T15:21:58;10.00;99.90
36586;DHT22;22591;48.314;11.562;2022-11-15T15:24:23;9.90;99.90
36586;DHT22;22591;48.314;11.562;2022-11-15T15:26:49;9.80;99.90
36586;DHT22;22591;48.314;11.562;2022-11-15T15:29:14;9.80;99.90
36586;DHT22;22591;48.314;11.562;2022-11-15T15:31:40;9.80;99.90
36586;DHT22;22591;48.314;11.562;2022-11-15T15:34:06;9.70;99.90
36586;DHT22;22591;48.314;11.562;2022-11-15T15:36:31;9.60;99.90
36586;DHT22;22591;48.314;11.562;2022-11-15T15:38:57;9.40;99.90
36586;DHT22;22591;48.314;11.562;2022-11-15T15:41:23;9.30;99.90
36586;DHT22;22591;48.314;11.562;2022-11-15T15:43:48;9.10;99.90
36586;DHT22;22591;48.314;11.562;2022-11-15T15:46:16;9.00;99.90
36586;DHT22;22591;48.314;11.562;2022-11-15T15:48:42;8.90;99.90
36586;DHT22;22591;48.314;11.562;2022-11-15T15:51:08;8.70;99.90
36586;DHT22;22591;48.314;11.562;2022-11-15T15:53:33;8.70;99.90
36586;DHT22;22591;48.314;11.562;2022-11-15T15:55:59;8.60;99.90
36586;DHT22;22591;48.314;11.562;2022-11-15T15:58:25;8.50;99.90
36586;DHT22;22591;48.314;11.562;2022-11-15T16:00:50;8.40;99.90
36586;DHT22;22591;48.314;11.562;2022-11-15T16:03:16;8.30;99.90
36586;DHT22;22591;48.314;11.562;2022-11-15T16:05:42;8.30;99.90
36586;DHT22;22591;48.314;11.562;2022-11-15T16:08:34;8.30;99.90
36586;DHT22;22591;48.314;11.562;2022-11-15T16:10:59;8.30;99.90
36586;DHT22;22591;48.314;11.562;2022-11-15T16:13:25;8.30;99.90
36586;DHT22;22591;48.314;11.562;2022-11-15T16:15:52;8.20;99.90
36586;DHT22;22591;48.314;11.562;2022-11-15T16:18:19;8.30;99.90
36586;DHT22;22591;48.314;11.562;2022-11-15T16:20:47;8.30;99.90
36586;DHT22;22591;48.314;11.562;2022-11-15T16:23:16;8.30;99.90
36586;DHT22;22591;48.314;11.562;2022-11-15T16:25:54;8.20;99.90
36586;DHT22;22591;48.314;11.562;2022-11-15T16:28:31;8.30;99.90
36586;DHT22;22591;48.314;11.562;2022-11-15T16:31:14;8.30;99.90
36586;DHT22;22591;48.314;11.562;2022-11-15T16:33:42;8.20;99.90
36586;DHT22;22591;48.314;11.562;2022-11-15T16:36:25;8.10;99.90
36586;DHT22;22591;48.314;11.562;2022-11-15T16:38:51;8.00;99.90
36586;DHT22;22591;48.314;11.562;2022-11-15T16:41:19;7.90;99.90
36586;DHT22;22591;48.314;11.562;2022-11-15T16:43:45;7.90;99.90
36586;DHT22;22591;48.314;11.562;2022-11-15T16:46:20;7.80;99.90
36586;DHT22;22591;48.314;11.562;2022-11-15T16:48:46;7.80;99.90
36586;DHT22;22591;48.314;11.562;2022-11-15T16:51:12;7.80;99.90
36586;DHT22;22591;48.314;11.562;2022-11-15T16:53:38;7.80;99.90
36586;DHT22;22591;48.314;11.562;2022-11-15T16:56:18;7.70;99.90
36586;DHT22;22591;48.314;11.562;2022-11-15T16:58:44;7.70;99.90
36586;DHT22;22591;48.314;11.562;2022-11-15T17:01:20;7.70;99.90
36586;DHT22;22591;48.314;11.562;2022-11-15T17:03:47;7.70;99.90
36586;DHT22;22591;48.314;11.562;2022-11-15T17:06:13;7.70;99.90
36586;DHT22;22591;48.314;11.562;2022-11-15T17:08:39;7.70;99.90
36586;DHT22;22591;48.314;11.562;2022-11-15T17:11:05;7.70;99.90
36586;DHT22;22591;48.314;11.562;2022-11-15T17:13:31;7.60;99.90
36586;DHT22;22591;48.314;11.562;2022-11-15T17:16:05;7.60;99.90
36586;DHT22;22591;48.314;11.562;2022-11-15T17:18:31;7.60;99.90
36586;DHT22;22591;48.314;11.562;2022-11-15T17:20:56;7.60;99.90